createdAt,value
2022-11-05T00:00:29.661Z,5.40
2022-11-05T00:03:15.073Z,5.50
2022-11-05T00:06:00.992Z,5.50
2022-11-05T00:08:46.484Z,5.50
2022-11-05T00:11:17.934Z,5.60
2022-11-05T00:14:03.867Z,5.60
2022-11-05T00:16:45.825Z,5.70
2022-11-05T00:19:13.771Z,5.70
2022-11-05T00:21:59.483Z,5.80
2022-11-05T00:24:44.903Z,5.80
2022-11-05T00:27:12.246Z,5.90
2022-11-05T00:29:39.551Z,5.90
2022-11-05T00:32:06.655Z,6.00
2022-11-05T00:34:33.688Z,6.10
2022-11-05T00:37:00.944Z,6.20
2022-11-05T00:39:28.282Z,6.20
2022-11-05T00:42:13.951Z,6.30
2022-11-05T00:44:59.936Z,6.40
2022-11-05T00:47:45.867Z,6.40
2022-11-05T00:50:12.730Z,6.50
2022-11-05T00:53:01.093Z,6.50
2022-11-05T00:55:33.885Z,6.50
2022-11-05T00:58:02.837Z,6.50
2022-11-05T01:00:32.396Z,6.50
2022-11-05T01:03:01.403Z,6.50
2022-11-05T01:05:29.763Z,6.50
2022-11-05T01:07:57.125Z,6.50
2022-11-05T01:10:25.088Z,6.50
2022-11-05T01:12:52.385Z,6.50
2022-11-05T01:15:20.445Z,6.50
2022-11-05T01:17:47.918Z,6.50
2022-11-05T01:20:15.415Z,6.50
2022-11-05T01:22:42.714Z,6.50
2022-11-05T01:25:10.098Z,6.50
2022-11-05T01:27:38.292Z,6.50
2022-11-05T01:30:07.265Z,6.50
2022-11-05T01:32:35.861Z,6.50
2022-11-05T01:35:04.577Z,6.40
2022-11-05T01:37:31.710Z,6.50
2022-11-05T01:39:58.755Z,6.40
2022-11-05T01:42:27.424Z,6.40
2022-11-05T01:45:13.033Z,6.40
2022-11-05T01:47:50.163Z,6.40
2022-11-05T01:50:35.336Z,6.40
2022-11-05T01:53:40.730Z,6.40
2022-11-05T01:56:18.608Z,6.30
2022-11-05T01:59:03.540Z,6.30
2022-11-05T02:01:30.999Z,6.30
2022-11-05T02:04:03.173Z,6.30
2022-11-05T02:06:32.891Z,6.20
2022-11-05T02:09:08.015Z,6.20
2022-11-05T02:11:35.428Z,6.20
2022-11-05T02:14:02.491Z,6.10
2022-11-05T02:16:29.512Z,6.10
2022-11-05T02:19:37.892Z,6.10
2022-11-05T02:22:21.618Z,6.00
2022-11-05T02:25:04.944Z,6.00
2022-11-05T02:27:50.594Z,6.00
2022-11-05T02:30:51.504Z,5.90
2022-11-05T02:33:37.252Z,5.90
2022-11-05T02:36:30.344Z,5.90
2022-11-05T02:39:27.329Z,5.80
2022-11-05T02:42:04.731Z,5.80
2022-11-05T02:44:50.272Z,5.80
2022-11-05T02:47:37.581Z,5.80
2022-11-05T02:50:28.830Z,5.80
2022-11-05T02:53:35.961Z,5.80
2022-11-05T02:56:09.605Z,5.70
2022-11-05T02:58:36.448Z,5.70
2022-11-05T03:01:06.995Z,5.60
2022-11-05T03:03:43.091Z,5.60
2022-11-05T03:06:40.749Z,5.60
2022-11-05T03:09:40.493Z,5.50
2022-11-05T03:12:28.452Z,5.50
2022-11-05T03:15:13.525Z,5.50
2022-11-05T03:18:10.775Z,5.40
2022-11-05T03:20:43.165Z,5.40
2022-11-05T03:23:21.364Z,5.40
2022-11-05T03:25:53.730Z,5.40
2022-11-05T03:28:25.675Z,5.40
2022-11-05T03:30:56.536Z,5.30
2022-11-05T03:33:25.515Z,5.30
2022-11-05T03:35:56.394Z,5.30
2022-11-05T03:38:25.126Z,5.30
2022-11-05T03:40:55.390Z,5.20
2022-11-05T03:43:27.340Z,5.20
2022-11-05T03:46:02.026Z,5.20
2022-11-05T03:48:30.830Z,5.20
2022-11-05T03:51:28.416Z,5.20
2022-11-05T03:54:01.116Z,5.20
2022-11-05T03:56:34.288Z,5.10
2022-11-05T03:59:06.634Z,5.10
2022-11-05T04:01:36.282Z,5.10
2022-11-05T04:04:04.480Z,5.10
2022-11-05T04:06:50.122Z,5.10
2022-11-05T04:09:35.401Z,5.00
2022-11-05T04:12:21.163Z,5.00
2022-11-05T04:14:49.577Z,4.90
2022-11-05T04:17:16.637Z,4.80
2022-11-05T04:20:03.606Z,4.70
2022-11-05T04:22:51.541Z,4.70
2022-11-05T04:25:19.962Z,4.60
2022-11-05T04:27:47.460Z,4.60
2022-11-05T04:30:19.095Z,4.50
2022-11-05T04:33:06.522Z,4.50
2022-11-05T04:35:48.092Z,4.40
2022-11-05T04:38:19.652Z,4.30
2022-11-05T04:40:47.991Z,4.30
2022-11-05T04:43:18.818Z,4.20
2022-11-05T04:45:46.237Z,4.10
2022-11-05T04:48:13.146Z,4.10
2022-11-05T04:50:40.235Z,4.10
2022-11-05T04:53:07.187Z,4.10
2022-11-05T04:55:34.321Z,4.10
2022-11-05T04:58:01.153Z,4.10
2022-11-05T05:00:28.145Z,4.10
2022-11-05T05:02:55.081Z,4.10
2022-11-05T05:05:23.264Z,4.10
2022-11-05T05:07:50.427Z,4.10
2022-11-05T05:10:17.424Z,4.00
2022-11-05T05:12:44.472Z,4.10
2022-11-05T05:15:12.665Z,4.10
2022-11-05T05:17:39.513Z,4.10
2022-11-05T05:20:25.575Z,4.10
2022-11-05T05:22:55.896Z,4.10
2022-11-05T05:25:23.270Z,4.10
2022-11-05T05:27:50.411Z,4.10
2022-11-05T05:30:17.542Z,4.10
2022-11-05T05:32:44.787Z,4.00
2022-11-05T05:35:12.281Z,4.10
2022-11-05T05:37:39.181Z,4.00
2022-11-05T05:40:06.615Z,4.00
2022-11-05T05:42:36.384Z,4.00
2022-11-05T05:45:07.371Z,4.00
2022-11-05T05:47:34.246Z,4.00
2022-11-05T05:50:01.180Z,4.00
2022-11-05T05:52:28.021Z,4.00
2022-11-05T05:54:54.872Z,4.00
2022-11-05T05:57:21.704Z,4.00
2022-11-05T05:59:48.612Z,4.00
2022-11-05T06:02:16.024Z,4.00
2022-11-05T06:04:43.184Z,3.90
2022-11-05T06:07:10.153Z,3.90
2022-11-05T06:09:37.008Z,3.90
2022-11-05T06:12:04.060Z,4.00
2022-11-05T06:14:30.921Z,4.00
2022-11-05T06:16:57.796Z,4.00
2022-11-05T06:19:24.696Z,3.90
2022-11-05T06:21:51.575Z,3.90
2022-11-05T06:24:18.401Z,3.90
2022-11-05T06:26:45.222Z,3.90
2022-11-05T06:29:12.234Z,3.90
2022-11-05T06:31:39.090Z,3.90
2022-11-05T06:34:05.998Z,3.90
2022-11-05T06:36:33.544Z,3.90
2022-11-05T06:39:00.410Z,3.90
2022-11-05T06:41:27.257Z,3.90
2022-11-05T06:43:54.097Z,3.90
2022-11-05T06:46:20.938Z,3.80
2022-11-05T06:48:48.587Z,3.90
2022-11-05T06:51:15.681Z,3.90
2022-11-05T06:53:42.602Z,3.90
2022-11-05T06:56:13.902Z,3.90
2022-11-05T06:58:40.808Z,3.90
2022-11-05T07:01:10.375Z,3.90
2022-11-05T07:03:38.031Z,3.90
2022-11-05T07:06:07.068Z,3.90
2022-11-05T07:08:35.244Z,3.90
2022-11-05T07:11:02.142Z,3.90
2022-11-05T07:13:30.307Z,3.90
2022-11-05T07:15:57.397Z,4.00
2022-11-05T07:18:24.565Z,4.00
2022-11-05T07:20:51.422Z,4.00
2022-11-05T07:25:50.116Z,4.00
2022-11-05T07:28:17.237Z,4.00
2022-11-05T07:30:44.353Z,4.00
2022-11-05T07:33:11.827Z,4.00
2022-11-05T07:35:39.037Z,4.00
2022-11-05T07:38:05.951Z,4.10
2022-11-05T07:40:32.973Z,4.00
2022-11-05T07:43:01.399Z,4.00
2022-11-05T07:45:30.917Z,4.10
2022-11-05T07:48:02.736Z,4.10
2022-11-05T07:50:33.081Z,4.10
2022-11-05T07:53:05.236Z,4.10
2022-11-05T07:55:32.600Z,4.10
2022-11-05T07:57:59.845Z,4.20
2022-11-05T08:00:28.225Z,4.20
2022-11-05T08:03:08.758Z,4.20
2022-11-05T08:05:39.205Z,4.20
2022-11-05T08:08:08.313Z,4.20
2022-11-05T08:10:36.269Z,4.10
2022-11-05T08:13:04.027Z,4.10
2022-11-05T08:15:31.475Z,4.10
2022-11-05T08:18:03.406Z,4.20
2022-11-05T08:20:30.734Z,4.20
2022-11-05T08:22:58.322Z,4.20
2022-11-05T08:25:25.808Z,4.20
2022-11-05T08:28:04.556Z,4.30
2022-11-05T08:30:32.364Z,4.30
2022-11-05T08:33:06.057Z,4.30
2022-11-05T08:35:34.978Z,4.30
2022-11-05T08:38:04.481Z,4.40
2022-11-05T08:40:34.849Z,4.40
2022-11-05T08:43:03.480Z,4.40
2022-11-05T08:45:31.027Z,4.40
2022-11-05T08:48:03.368Z,4.40
2022-11-05T08:50:32.443Z,4.40
2022-11-05T08:52:59.833Z,4.50
2022-11-05T08:55:27.116Z,4.40
2022-11-05T08:58:02.621Z,4.50
2022-11-05T09:00:31.551Z,4.50
2022-11-05T09:03:03.090Z,4.50
2022-11-05T09:05:31.235Z,4.50
2022-11-05T09:08:01.361Z,4.50
2022-11-05T09:10:28.901Z,4.50
2022-11-05T09:12:56.006Z,4.50
2022-11-05T09:15:23.559Z,4.60
2022-11-05T09:17:50.841Z,4.60
2022-11-05T09:20:17.841Z,4.60
2022-11-05T09:22:45.157Z,4.60
2022-11-05T09:25:12.197Z,4.60
2022-11-05T09:27:39.055Z,4.60
2022-11-05T09:30:06.472Z,4.70
2022-11-05T09:32:34.009Z,4.70
2022-11-05T09:35:01.334Z,4.70
2022-11-05T09:37:29.055Z,4.70
2022-11-05T09:39:55.924Z,4.70
2022-11-05T09:42:28.200Z,4.80
2022-11-05T09:44:59.573Z,4.80
2022-11-05T09:47:35.035Z,4.80
2022-11-05T09:50:07.190Z,4.80
2022-11-05T09:52:34.628Z,4.80
2022-11-05T09:55:05.015Z,4.80
2022-11-05T09:57:45.994Z,4.80
2022-11-05T10:00:16.624Z,4.80
2022-11-05T10:02:56.500Z,4.70
2022-11-05T10:05:32.259Z,4.70
2022-11-05T10:08:11.156Z,4.80
2022-11-05T10:11:09.963Z,4.80
2022-11-05T10:13:39.708Z,4.80
2022-11-05T10:16:30.944Z,4.90
2022-11-05T10:19:06.504Z,4.80
2022-11-05T10:22:00.013Z,4.90
2022-11-05T10:24:21.535Z,4.90
2022-11-05T10:26:50.643Z,4.90
2022-11-05T10:29:29.657Z,4.90
2022-11-05T10:32:03.346Z,4.90
2022-11-05T10:34:34.123Z,5.00
2022-11-05T10:37:01.329Z,5.10
2022-11-05T10:39:35.704Z,5.10
2022-11-05T10:42:02.617Z,5.10
2022-11-05T10:44:44.035Z,5.10
2022-11-05T10:47:32.249Z,5.20
2022-11-05T10:50:20.134Z,5.20
2022-11-05T10:53:00.133Z,5.20
2022-11-05T10:55:26.953Z,5.30
2022-11-05T10:57:54.192Z,5.30
2022-11-05T11:00:23.479Z,5.30
2022-11-05T11:02:58.151Z,5.30
2022-11-05T11:05:35.762Z,5.40
2022-11-05T11:08:25.237Z,5.50
2022-11-05T11:10:57.458Z,5.50
2022-11-05T11:13:30.201Z,5.50
2022-11-05T11:16:16.358Z,5.50
2022-11-05T11:18:43.975Z,5.50
2022-11-05T11:21:20.393Z,5.50
2022-11-05T11:24:00.881Z,5.50
2022-11-05T11:26:32.316Z,5.50
2022-11-05T11:29:15.404Z,5.50
2022-11-05T11:31:42.592Z,5.60
2022-11-05T11:34:21.147Z,5.60
2022-11-05T11:36:51.394Z,5.70
2022-11-05T11:39:24.428Z,5.60
2022-11-05T11:41:54.952Z,5.70
2022-11-05T11:44:29.641Z,5.70
2022-11-05T11:47:04.214Z,5.70
2022-11-05T11:49:33.917Z,5.70
2022-11-05T11:52:10.075Z,5.70
2022-11-05T11:54:36.923Z,5.70
2022-11-05T11:57:18.231Z,5.70
2022-11-05T12:00:07.786Z,5.70
2022-11-05T12:02:40.966Z,5.70
2022-11-05T12:05:19.422Z,5.70
2022-11-05T12:07:54.004Z,5.70
2022-11-05T12:10:47.106Z,5.70
2022-11-05T12:13:20.524Z,5.80
2022-11-05T12:15:55.012Z,5.80
2022-11-05T12:18:54.645Z,5.80
2022-11-05T12:22:00.092Z,5.80
2022-11-05T12:24:53.945Z,5.80
2022-11-05T12:27:29.845Z,5.90
2022-11-05T12:30:09.056Z,5.90
2022-11-05T12:32:54.774Z,5.90
2022-11-05T12:35:54.781Z,5.90
2022-11-05T12:38:34.183Z,5.90
2022-11-05T12:41:16.408Z,5.90
2022-11-05T12:44:10.952Z,5.90
2022-11-05T12:46:43.535Z,5.90
2022-11-05T12:49:16.429Z,5.90
2022-11-05T12:52:13.505Z,5.90
2022-11-05T12:54:43.146Z,6.00
2022-11-05T12:57:13.355Z,6.00
2022-11-05T13:00:06.779Z,6.00
2022-11-05T13:02:52.654Z,6.00
2022-11-05T13:05:43.416Z,6.00
2022-11-05T13:08:43.659Z,6.00
2022-11-05T13:11:19.687Z,6.00
2022-11-05T13:13:54.172Z,6.10
2022-11-05T13:16:33.010Z,6.10
2022-11-05T13:19:14.010Z,6.10
2022-11-05T13:21:42.011Z,6.10
2022-11-05T13:24:24.233Z,6.00
2022-11-05T13:27:12.949Z,6.00
2022-11-05T13:29:52.784Z,6.00
2022-11-05T13:32:37.320Z,6.00
2022-11-05T13:35:13.846Z,6.00
2022-11-05T13:38:02.577Z,6.00
2022-11-05T13:41:04.147Z,6.00
2022-11-05T13:43:46.497Z,6.00
2022-11-05T13:46:28.492Z,6.00
2022-11-05T13:49:10.952Z,6.00
2022-11-05T13:52:06.468Z,6.00
2022-11-05T13:55:20.656Z,6.00
2022-11-05T13:58:24.251Z,6.00
2022-11-05T14:01:27.069Z,6.00
2022-11-05T14:03:56.477Z,6.00
2022-11-05T14:06:33.521Z,6.00
2022-11-05T14:09:10.062Z,6.00
2022-11-05T14:11:41.179Z,6.00
2022-11-05T14:14:16.081Z,6.00
2022-11-05T14:16:52.797Z,6.00
2022-11-05T14:19:19.581Z,6.10
2022-11-05T14:21:48.324Z,6.10
2022-11-05T14:24:24.126Z,6.10
2022-11-05T14:27:03.148Z,6.10
2022-11-05T14:29:45.546Z,6.10
2022-11-05T14:32:20.907Z,6.10
2022-11-05T14:34:49.403Z,6.10
2022-11-05T14:37:37.178Z,6.10
2022-11-05T14:40:43.519Z,6.10
2022-11-05T14:43:21.732Z,6.10
2022-11-05T14:45:57.269Z,6.10
2022-11-05T14:48:48.155Z,6.10
2022-11-05T14:51:35.783Z,6.10
2022-11-05T14:54:29.641Z,6.10
2022-11-05T14:56:59.443Z,6.10
2022-11-05T14:59:31.488Z,6.10
2022-11-05T15:02:11.813Z,6.10
2022-11-05T15:04:45.500Z,6.10
2022-11-05T15:07:23.610Z,6.20
2022-11-05T15:09:53.506Z,6.10
2022-11-05T15:12:31.730Z,6.10
2022-11-05T15:15:10.362Z,6.10
2022-11-05T15:18:07.393Z,6.20
2022-11-05T15:20:44.991Z,6.10
2022-11-05T15:23:18.247Z,6.10
2022-11-05T15:26:04.634Z,6.20
2022-11-05T15:28:41.140Z,6.10
2022-11-05T15:31:14.157Z,6.20
2022-11-05T15:33:48.388Z,6.10
2022-11-05T15:36:22.593Z,6.10
2022-11-05T15:39:15.067Z,6.10
2022-11-05T15:41:49.455Z,6.10
2022-11-05T15:44:33.027Z,6.10
2022-11-05T15:47:17.704Z,6.10
2022-11-05T15:49:54.930Z,6.10
2022-11-05T15:52:24.881Z,6.10
2022-11-05T15:55:13.324Z,6.10
2022-11-05T15:58:03.039Z,6.10
2022-11-05T16:00:33.143Z,6.10
2022-11-05T16:03:14.753Z,6.10
2022-11-05T16:05:48.288Z,6.10
2022-11-05T16:08:20.152Z,6.10
2022-11-05T16:10:50.287Z,6.00
2022-11-05T16:13:32.408Z,6.10
2022-11-05T16:16:05.041Z,6.10
2022-11-05T16:18:34.991Z,6.10
2022-11-05T16:21:10.509Z,6.10
2022-11-05T16:23:44.786Z,6.10
2022-11-05T16:29:40.069Z,6.10
2022-11-05T16:32:17.164Z,6.00
2022-11-05T16:34:49.950Z,6.00
2022-11-05T16:37:20.515Z,6.00
2022-11-05T16:39:47.617Z,6.00
2022-11-05T16:42:23.634Z,6.00
2022-11-05T16:44:51.749Z,6.00
2022-11-05T16:47:19.720Z,6.00
2022-11-05T16:49:48.671Z,6.00
2022-11-05T16:52:15.713Z,6.00
2022-11-05T16:54:42.621Z,6.00
2022-11-05T16:57:29.337Z,6.00
2022-11-05T16:59:58.152Z,6.00
2022-11-05T17:02:25.991Z,6.00
2022-11-05T17:04:53.175Z,6.10
2022-11-05T17:07:20.070Z,6.00
2022-11-05T17:09:46.922Z,6.00
2022-11-05T17:12:14.962Z,6.00
2022-11-05T17:14:41.836Z,6.00
2022-11-05T17:17:08.721Z,6.00
2022-11-05T17:19:35.608Z,6.00
2022-11-05T17:22:02.459Z,6.00
2022-11-05T17:24:29.280Z,6.00
2022-11-05T17:26:56.126Z,5.90
2022-11-05T17:29:22.951Z,5.90
2022-11-05T17:31:49.891Z,5.90
2022-11-05T17:34:16.772Z,5.80
2022-11-05T17:36:43.621Z,5.80
2022-11-05T17:39:11.056Z,5.80
2022-11-05T17:41:37.947Z,5.80
2022-11-05T17:44:04.907Z,5.70
2022-11-05T17:46:31.941Z,5.70
2022-11-05T17:48:58.806Z,5.70
2022-11-05T17:51:25.701Z,5.70
2022-11-05T17:53:52.538Z,5.70
2022-11-05T17:56:30.552Z,5.60
2022-11-05T17:59:01.419Z,5.60
2022-11-05T18:01:31.443Z,5.60
2022-11-05T18:04:02.477Z,5.60
2022-11-05T18:06:33.964Z,5.60
2022-11-05T18:09:00.890Z,5.60
2022-11-05T18:11:28.199Z,5.60
2022-11-05T18:13:55.694Z,5.60
2022-11-05T18:16:22.561Z,5.50
2022-11-05T18:18:49.424Z,5.50
2022-11-05T18:21:16.505Z,5.50
2022-11-05T18:23:56.580Z,5.50
2022-11-05T18:26:23.625Z,5.50
2022-11-05T18:28:50.688Z,5.50
2022-11-05T18:31:20.696Z,5.50
2022-11-05T18:33:48.946Z,5.50
2022-11-05T18:36:27.298Z,5.50
2022-11-05T18:38:54.627Z,5.50
2022-11-05T18:41:21.874Z,5.50
2022-11-05T18:43:48.718Z,5.50
2022-11-05T18:46:43.015Z,5.50
2022-11-05T18:49:03.126Z,5.50
2022-11-05T18:51:30.121Z,5.50
2022-11-05T18:53:57.107Z,5.50
2022-11-05T18:56:24.284Z,5.50
2022-11-05T18:59:14.766Z,5.50
2022-11-05T19:01:40.840Z,5.40
2022-11-05T19:04:07.913Z,5.40
2022-11-05T19:06:35.585Z,5.40
2022-11-05T19:09:02.618Z,5.40
2022-11-05T19:11:29.637Z,5.40
2022-11-05T19:13:56.557Z,5.40
2022-11-05T19:16:26.641Z,5.40
2022-11-05T19:18:54.446Z,5.40
2022-11-05T19:21:24.380Z,5.40
2022-11-05T19:23:52.296Z,5.40
2022-11-05T19:26:28.549Z,5.40
2022-11-05T19:28:58.808Z,5.40
2022-11-05T19:31:26.107Z,5.40
2022-11-05T19:33:54.208Z,5.40
2022-11-05T19:36:23.433Z,5.40
2022-11-05T19:38:56.243Z,5.40
2022-11-05T19:41:23.698Z,5.40
2022-11-05T19:43:50.824Z,5.40
2022-11-05T19:46:19.396Z,5.40
2022-11-05T19:48:46.508Z,5.40
2022-11-05T19:51:22.955Z,5.40
2022-11-05T19:53:52.523Z,5.50
2022-11-05T19:56:24.958Z,5.40
2022-11-05T19:58:53.360Z,5.40
2022-11-05T20:01:21.992Z,5.40
2022-11-05T20:03:49.251Z,5.40
2022-11-05T20:06:21.751Z,5.40
2022-11-05T20:09:19.421Z,5.40
2022-11-05T20:11:40.186Z,5.40
2022-11-05T20:14:09.415Z,5.40
2022-11-05T20:16:38.404Z,5.40
2022-11-05T20:19:07.532Z,5.50
2022-11-05T20:21:34.769Z,5.40
2022-11-05T20:24:01.832Z,5.50
2022-11-05T20:26:29.545Z,5.50
2022-11-05T20:28:56.754Z,5.60
2022-11-05T20:31:23.813Z,5.60
2022-11-05T20:33:51.305Z,5.60
2022-11-05T20:36:23.060Z,5.60
2022-11-05T20:38:51.540Z,5.70
2022-11-05T20:41:19.255Z,5.70
2022-11-05T20:43:47.042Z,5.70
2022-11-05T20:46:16.785Z,5.70
2022-11-05T20:48:47.050Z,5.70
2022-11-05T20:51:19.286Z,5.70
2022-11-05T20:53:46.970Z,5.80
2022-11-05T20:56:23.590Z,5.80
2022-11-05T20:58:51.247Z,5.80
2022-11-05T21:01:19.540Z,5.80
2022-11-05T21:03:47.870Z,5.80
2022-11-05T21:06:15.551Z,5.80
2022-11-05T21:08:43.271Z,5.80
2022-11-05T21:11:10.649Z,5.80
2022-11-05T21:13:38.265Z,5.80
2022-11-05T21:16:07.854Z,5.80
2022-11-05T21:18:37.028Z,5.80
2022-11-05T21:21:09.010Z,5.80
2022-11-05T21:23:35.911Z,5.90
2022-11-05T21:26:07.278Z,5.80
2022-11-05T21:28:34.610Z,5.90
2022-11-05T21:31:03.596Z,5.90
2022-11-05T21:33:31.037Z,5.90
2022-11-05T21:35:57.978Z,5.90
2022-11-05T21:38:25.219Z,5.90
2022-11-05T21:40:52.106Z,5.90
2022-11-05T21:43:18.987Z,5.90
2022-11-05T21:45:46.041Z,5.90
2022-11-05T21:48:15.274Z,5.90
2022-11-05T21:51:00.870Z,5.90
2022-11-05T21:53:46.313Z,5.90
2022-11-05T21:56:44.013Z,5.90
2022-11-05T21:59:34.747Z,5.90
2022-11-05T22:02:05.076Z,5.90
2022-11-05T22:04:34.578Z,5.90
2022-11-05T22:07:01.589Z,5.90
2022-11-05T22:09:28.699Z,5.90
2022-11-05T22:11:55.862Z,6.00
2022-11-05T22:14:23.157Z,6.00
2022-11-05T22:16:50.324Z,6.00
2022-11-05T22:19:17.759Z,6.00
2022-11-05T22:21:44.591Z,6.00
2022-11-05T22:24:11.854Z,6.00
2022-11-05T22:26:39.762Z,6.00
2022-11-05T22:29:07.005Z,6.00
2022-11-05T22:31:36.492Z,6.00
2022-11-05T22:34:04.706Z,6.00
2022-11-05T22:36:32.846Z,6.00
2022-11-05T22:38:59.929Z,6.00
2022-11-05T22:41:27.500Z,6.00
2022-11-05T22:43:54.654Z,6.00
2022-11-05T22:46:23.909Z,6.10
2022-11-05T22:48:51.135Z,6.00
2022-11-05T22:51:26.419Z,6.10
2022-11-05T22:53:54.859Z,6.10
2022-11-05T22:56:24.565Z,6.10
2022-11-05T22:58:52.168Z,6.10
2022-11-05T23:01:20.779Z,6.10
2022-11-05T23:03:49.147Z,6.10
2022-11-05T23:06:46.351Z,6.10
2022-11-05T23:09:37.792Z,6.10
2022-11-05T23:12:07.888Z,6.10
2022-11-05T23:14:36.411Z,6.10
2022-11-05T23:17:22.166Z,6.10
2022-11-05T23:20:07.834Z,6.10
2022-11-05T23:22:53.210Z,6.10
2022-11-05T23:25:22.052Z,6.10
2022-11-05T23:27:51.180Z,6.10
2022-11-05T23:30:22.809Z,6.10
2022-11-05T23:32:50.984Z,6.10
2022-11-05T23:35:38.337Z,6.10
2022-11-05T23:38:23.837Z,6.20
2022-11-05T23:41:09.033Z,6.20
2022-11-05T23:43:54.564Z,6.20
2022-11-05T23:46:40.404Z,6.20
2022-11-05T23:49:07.267Z,6.20
2022-11-05T23:51:34.102Z,6.20
2022-11-05T23:54:00.977Z,6.20
2022-11-05T23:56:27.875Z,6.20
2022-11-05T23:58:54.776Z,6.20
